createdAt,value
2023-04-04T11:35:46.685Z,89.94
2023-04-04T11:36:46.597Z,88.46
2023-04-04T11:37:46.569Z,87.89
2023-04-04T11:38:46.555Z,85.70
2023-04-04T11:39:46.531Z,85.55
2023-04-04T11:40:46.493Z,84.45
2023-04-04T11:41:46.482Z,83.59
2023-04-04T11:42:46.484Z,82.59
2023-04-04T11:43:46.456Z,81.97
2023-04-04T11:44:46.407Z,80.54
2023-04-04T11:45:46.439Z,80.11
2023-04-04T11:46:46.386Z,80.15
2023-04-04T11:47:46.426Z,79.61
2023-04-04T11:48:46.345Z,78.37
2023-04-04T11:49:46.334Z,77.42
2023-04-04T11:50:46.303Z,75.68
2023-04-04T11:51:46.302Z,76.01
2023-04-04T11:52:46.310Z,76.71
2023-04-04T11:53:46.254Z,76.08
2023-04-04T11:54:46.232Z,76.75
2023-04-04T11:55:46.217Z,77.03
2023-04-04T11:56:46.188Z,76.98
2023-04-04T11:57:46.188Z,76.31
2023-04-04T11:58:46.152Z,77.06
2023-04-04T11:59:46.203Z,76.96
2023-04-04T12:00:46.108Z,75.10
2023-04-04T12:01:46.103Z,75.01
2023-04-04T12:02:46.138Z,74.91
2023-04-04T12:03:46.110Z,73.90
2023-04-04T12:04:46.086Z,72.50
2023-04-04T12:05:46.088Z,72.63
2023-04-04T12:06:45.994Z,72.06
2023-04-04T12:07:45.991Z,70.27
2023-04-04T12:08:45.974Z,70.46
2023-04-04T12:09:45.978Z,70.67
2023-04-04T12:10:45.952Z,72.43
2023-04-04T12:11:45.920Z,72.33
2023-04-04T12:12:45.918Z,71.00
2023-04-04T12:13:45.901Z,70.33
2023-04-04T12:14:45.887Z,70.04
2023-04-04T12:15:45.880Z,69.79
2023-04-04T12:16:45.824Z,70.56
2023-04-04T12:17:46.044Z,70.68
2023-04-04T12:18:45.802Z,70.40
2023-04-04T12:19:45.797Z,69.76
2023-04-04T12:20:45.762Z,69.64
2023-04-04T12:21:45.763Z,68.68
2023-04-04T12:22:45.746Z,68.96
2023-04-04T12:23:45.733Z,68.42
2023-04-04T12:24:45.691Z,68.58
2023-04-04T12:25:45.680Z,68.87
2023-04-04T12:26:45.678Z,68.45
2023-04-04T12:27:45.656Z,68.41
2023-04-04T12:28:45.644Z,69.56
2023-04-04T12:29:45.631Z,71.51
2023-04-04T12:30:45.607Z,70.46
2023-04-04T12:31:45.622Z,68.90
2023-04-04T12:32:45.605Z,68.51
2023-04-04T12:33:45.574Z,69.50
2023-04-04T12:34:48.818Z,69.86
2023-04-04T12:35:45.538Z,68.55
2023-04-04T12:36:45.492Z,67.78
2023-04-04T12:37:45.498Z,68.58
2023-04-04T12:38:45.480Z,69.38
2023-04-04T12:39:45.455Z,69.42
2023-04-04T12:40:45.431Z,68.17
2023-04-04T12:41:45.439Z,67.50
2023-04-04T12:42:45.434Z,67.41
2023-04-04T12:43:45.417Z,66.74
2023-04-04T12:44:45.376Z,68.49
2023-04-04T12:45:45.379Z,67.63
2023-04-04T12:46:47.830Z,67.28
2023-04-04T12:47:45.351Z,66.64
2023-04-04T12:48:45.316Z,67.47
2023-04-04T12:49:45.360Z,67.21
2023-04-04T12:50:45.279Z,68.49
2023-04-04T12:51:45.278Z,66.86
2023-04-04T12:52:46.138Z,67.05
2023-04-04T12:53:45.227Z,66.96
2023-04-04T12:54:46.989Z,67.91
2023-04-04T12:55:45.218Z,68.68
2023-04-04T12:56:45.208Z,68.80
2023-04-04T12:57:45.178Z,68.42
2023-04-04T12:58:47.105Z,67.82
2023-04-04T12:59:45.157Z,69.00
2023-04-04T13:00:45.136Z,68.68
2023-04-04T13:01:45.145Z,66.93
2023-04-04T13:02:45.150Z,65.81
2023-04-04T13:03:45.125Z,65.39
2023-04-04T13:04:45.099Z,64.43
2023-04-04T13:05:45.071Z,63.70
2023-04-04T13:06:45.066Z,63.29
2023-04-04T13:07:45.085Z,63.29
2023-04-04T13:08:45.018Z,63.03
2023-04-04T13:09:45.011Z,65.17
2023-04-04T13:10:44.986Z,65.11
2023-04-04T13:11:44.982Z,64.59
2023-04-04T13:12:44.958Z,64.15
2023-04-04T13:13:45.029Z,64.98
2023-04-04T13:14:44.931Z,65.64
2023-04-04T13:15:44.923Z,66.73
2023-04-04T13:16:44.920Z,67.65
2023-04-04T13:17:44.915Z,68.13
2023-04-04T13:18:44.913Z,68.16
2023-04-04T13:19:44.878Z,67.94
2023-04-04T13:20:44.874Z,67.11
2023-04-04T13:21:44.826Z,66.79
2023-04-04T13:22:44.829Z,67.78
2023-04-04T13:23:44.839Z,66.70
2023-04-04T13:24:44.803Z,66.92
2023-04-04T13:25:44.790Z,66.76
2023-04-04T13:26:44.805Z,66.28
2023-04-04T13:27:44.786Z,66.09
2023-04-04T13:28:44.797Z,66.13
2023-04-04T13:29:44.764Z,66.89
2023-04-04T13:30:44.773Z,67.54
2023-04-04T13:31:44.763Z,65.78
2023-04-04T13:32:44.803Z,66.16
2023-04-04T13:33:44.716Z,65.49
2023-04-04T13:34:44.702Z,64.79
2023-04-04T13:35:44.685Z,65.65
2023-04-04T13:36:44.753Z,65.08
2023-04-04T13:37:44.668Z,64.22
2023-04-04T13:38:44.674Z,65.55
2023-04-04T13:39:44.690Z,64.09
2023-04-04T13:40:44.674Z,64.47
2023-04-04T13:41:44.619Z,63.93
2023-04-04T13:42:44.618Z,64.15
2023-04-04T13:43:44.596Z,65.23
2023-04-04T13:44:44.631Z,65.49
2023-04-04T13:45:44.623Z,64.59
2023-04-04T13:46:44.594Z,63.51
2023-04-04T13:47:44.570Z,62.30
2023-04-04T13:48:44.552Z,62.40
2023-04-04T13:49:44.543Z,63.57
2023-04-04T13:50:44.537Z,64.92
2023-04-04T13:51:44.509Z,64.22
2023-04-04T13:52:45.230Z,63.73
2023-04-04T13:53:44.505Z,64.22
2023-04-04T13:54:44.515Z,65.05
2023-04-04T13:56:01.519Z,63.16
2023-04-04T13:56:44.461Z,62.10
2023-04-04T13:57:44.458Z,61.63
2023-04-04T13:58:44.476Z,60.57
2023-04-04T13:59:44.439Z,60.44
2023-04-04T14:00:44.415Z,60.32
2023-04-04T14:01:44.419Z,61.08
2023-04-04T14:02:44.481Z,63.32
2023-04-04T14:03:44.404Z,63.26
2023-04-04T14:04:44.408Z,61.66
2023-04-04T14:05:44.374Z,61.27
2023-04-04T14:06:44.375Z,60.72
2023-04-04T14:07:44.335Z,60.12
2023-04-04T14:08:44.330Z,60.54
2023-04-04T14:09:44.326Z,60.55
2023-04-04T14:10:44.307Z,62.11
2023-04-04T14:11:44.311Z,63.03
2023-04-04T14:12:44.303Z,63.32
2023-04-04T14:13:44.286Z,63.83
2023-04-04T14:14:44.297Z,64.40
2023-04-04T14:15:44.507Z,64.34
2023-04-04T14:16:44.267Z,63.80
2023-04-04T14:17:44.247Z,62.93
2023-04-04T14:18:44.226Z,62.39
2023-04-04T14:19:44.241Z,62.17
2023-04-04T14:20:44.229Z,62.84
2023-04-04T14:21:44.220Z,63.26
2023-04-04T14:22:44.206Z,63.06
2023-04-04T14:23:44.175Z,62.10
2023-04-04T14:24:44.200Z,62.68
2023-04-04T14:25:44.180Z,62.49
2023-04-04T14:26:44.169Z,61.82
2023-04-04T14:27:44.132Z,62.33
2023-04-04T14:28:44.132Z,61.60
2023-04-04T14:29:44.148Z,60.61
2023-04-04T14:30:44.118Z,61.31
2023-04-04T14:31:44.201Z,62.10
2023-04-04T14:32:44.187Z,62.39
2023-04-04T14:33:44.095Z,61.91
2023-04-04T14:34:44.088Z,62.87
2023-04-04T14:35:44.138Z,63.32
2023-04-04T14:36:44.100Z,63.16
2023-04-04T14:37:44.067Z,62.90
2023-04-04T14:38:44.042Z,63.03
2023-04-04T14:39:44.043Z,62.14
2023-04-04T14:40:44.044Z,62.26
2023-04-04T14:41:44.030Z,63.16
2023-04-04T14:42:44.010Z,63.45
2023-04-04T14:43:44.018Z,63.29
2023-04-04T14:44:44.021Z,62.07
2023-04-04T14:45:43.995Z,61.88
2023-04-04T14:46:44.049Z,62.04
2023-04-04T14:47:44.007Z,60.70
2023-04-04T14:48:43.961Z,60.16
2023-04-04T14:49:43.984Z,61.75
2023-04-04T14:50:43.966Z,62.42
2023-04-04T14:51:43.932Z,60.28
2023-04-04T14:52:43.931Z,59.97
2023-04-04T14:53:43.939Z,60.86
2023-04-04T14:54:43.925Z,61.60
2023-04-04T14:55:43.924Z,62.77
2023-04-04T14:56:43.920Z,62.59
2023-04-04T14:58:01.400Z,62.17
2023-04-04T14:58:43.901Z,62.55
2023-04-04T14:59:43.878Z,63.16
2023-04-04T15:00:43.878Z,61.69
2023-04-04T15:01:44.006Z,61.91
2023-04-04T15:02:43.890Z,62.55
2023-04-04T15:03:43.856Z,63.42
2023-04-04T15:04:43.981Z,62.14
2023-04-04T15:05:44.076Z,61.57
2023-04-04T15:06:43.827Z,62.23
2023-04-04T15:07:43.801Z,62.62
2023-04-04T15:08:43.837Z,63.16
2023-04-04T15:09:43.817Z,61.85
2023-04-04T15:10:43.827Z,60.82
2023-04-04T15:11:43.768Z,60.44
2023-04-04T15:12:43.800Z,61.11
2023-04-04T15:13:43.748Z,59.58
2023-04-04T15:14:43.763Z,59.04
2023-04-04T15:15:43.772Z,60.32
2023-04-04T15:16:43.787Z,61.51
2023-04-04T15:17:43.747Z,63.07
2023-04-04T15:18:43.736Z,63.45
2023-04-04T15:19:43.721Z,63.45
2023-04-04T15:20:44.067Z,64.59
2023-04-04T16:12:29.206Z,68.41
2023-04-04T16:13:29.175Z,67.93
2023-04-04T16:14:29.175Z,66.25
2023-04-04T16:15:29.163Z,65.58
2023-04-04T16:16:29.208Z,66.47
2023-04-04T16:17:29.829Z,66.95
2023-04-04T16:18:29.084Z,66.47
2023-04-04T16:19:29.061Z,65.42
2023-04-04T16:20:29.065Z,65.23
2023-04-04T16:21:29.049Z,66.00
2023-04-04T16:22:29.044Z,66.28
2023-04-04T16:23:29.013Z,65.71
2023-04-04T16:24:29.000Z,65.14
2023-04-04T16:25:29.013Z,66.50
2023-04-04T16:26:29.005Z,65.33
2023-04-04T16:27:28.969Z,64.25
2023-04-04T16:28:28.972Z,65.01
2023-04-04T16:29:28.924Z,65.87
2023-04-04T16:30:53.626Z,66.53
2023-04-04T16:33:02.769Z,65.58
2023-04-04T16:34:02.698Z,65.10
2023-04-04T16:35:02.710Z,64.25
2023-04-04T16:38:29.000Z,66.98
2023-04-04T16:39:28.941Z,67.27
